sensor_id;sensor_type;location;lat;lon;timestamp;pressure;altitude;pressure_sealevel;temperature;humidity
77889;BME280;67082;41.704;44.768;2023-09-12T00:14:29;95601.47;;;17.44;73.54
77889;BME280;67082;41.704;44.768;2023-09-12T00:21:41;95602.81;;;17.54;72.95
77889;BME280;67082;41.704;44.768;2023-09-12T00:37:35;95623.22;;;17.60;73.48
77889;BME280;67082;41.704;44.768;2023-09-12T00:40:04;95619.41;;;17.63;73.66
77889;BME280;67082;41.704;44.768;2023-09-12T00:42:32;95616.38;;;17.67;74.01
77889;BME280;67082;41.704;44.768;2023-09-12T00:45:01;95611.06;;;17.74;73.66
77889;BME280;67082;41.704;44.768;2023-09-12T00:47:31;95608.19;;;17.58;74.19
77889;BME280;67082;41.704;44.768;2023-09-12T00:50:00;95614.00;;;17.54;73.75
77889;BME280;67082;41.704;44.768;2023-09-12T00:52:33;95609.31;;;17.40;74.76
77889;BME280;67082;41.704;44.768;2023-09-12T00:55:02;95612.38;;;17.42;74.78
77889;BME280;67082;41.704;44.768;2023-09-12T00:57:32;95604.81;;;17.48;74.78
77889;BME280;67082;41.704;44.768;2023-09-12T01:00:02;95604.25;;;17.44;75.44
77889;BME280;67082;41.704;44.768;2023-09-12T01:02:43;95590.75;;;17.43;76.09
77889;BME280;67082;41.704;44.768;2023-09-12T01:05:13;95588.44;;;17.41;76.13
77889;BME280;67082;41.704;44.768;2023-09-12T01:07:43;95583.16;;;17.49;75.75
77889;BME280;67082;41.704;44.768;2023-09-12T01:10:11;95586.31;;;17.36;76.45
77889;BME280;67082;41.704;44.768;2023-09-12T01:12:40;95580.13;;;17.21;77.05
77889;BME280;67082;41.704;44.768;2023-09-12T01:15:08;95572.63;;;17.07;77.34
77889;BME280;67082;41.704;44.768;2023-09-12T01:17:42;95565.03;;;17.13;77.86
77889;BME280;67082;41.704;44.768;2023-09-12T01:20:16;95561.25;;;17.16;77.93
77889;BME280;67082;41.704;44.768;2023-09-12T01:23:21;95570.44;;;17.22;77.63
77889;BME280;67082;41.704;44.768;2023-09-12T01:26:02;95592.84;;;17.22;77.43
77889;BME280;67082;41.704;44.768;2023-09-12T01:28:37;95597.38;;;17.14;77.74
77889;BME280;67082;41.704;44.768;2023-09-12T01:31:12;95599.66;;;17.16;77.92
77889;BME280;67082;41.704;44.768;2023-09-12T01:33:41;95601.72;;;17.15;77.94
77889;BME280;67082;41.704;44.768;2023-09-12T01:36:10;95599.94;;;17.18;77.45
77889;BME280;67082;41.704;44.768;2023-09-12T01:38:38;95604.09;;;17.28;77.96
77889;BME280;67082;41.704;44.768;2023-09-12T01:41:07;95600.00;;;17.23;77.34
77889;BME280;67082;41.704;44.768;2023-09-12T01:43:37;95600.75;;;17.24;77.38
77889;BME280;67082;41.704;44.768;2023-09-12T01:46:07;95603.28;;;17.22;77.83
77889;BME280;67082;41.704;44.768;2023-09-12T01:48:36;95597.47;;;17.25;77.84
77889;BME280;67082;41.704;44.768;2023-09-12T01:51:06;95608.69;;;17.25;77.88
77889;BME280;67082;41.704;44.768;2023-09-12T01:53:36;95606.13;;;17.27;77.45
77889;BME280;67082;41.704;44.768;2023-09-12T01:56:04;95601.97;;;17.17;77.33
77889;BME280;67082;41.704;44.768;2023-09-12T01:58:33;95601.75;;;17.21;77.25
77889;BME280;67082;41.704;44.768;2023-09-12T02:01:01;95614.22;;;17.20;77.90
77889;BME280;67082;41.704;44.768;2023-09-12T02:03:30;95604.31;;;17.24;77.65
77889;BME280;67082;41.704;44.768;2023-09-12T02:05:58;95597.47;;;17.25;77.30
77889;BME280;67082;41.704;44.768;2023-09-12T02:08:26;95572.44;;;17.16;78.01
77889;BME280;67082;41.704;44.768;2023-09-12T02:10:54;95565.03;;;16.82;79.65
77889;BME280;67082;41.704;44.768;2023-09-12T02:13:23;95560.97;;;16.83;79.08
77889;BME280;67082;41.704;44.768;2023-09-12T02:15:58;95576.00;;;16.60;80.04
77889;BME280;67082;41.704;44.768;2023-09-12T02:18:28;95572.50;;;16.65;79.94
77889;BME280;67082;41.704;44.768;2023-09-12T02:20:57;95568.84;;;16.79;79.64
77889;BME280;67082;41.704;44.768;2023-09-12T02:23:26;95579.28;;;16.84;79.75
77889;BME280;67082;41.704;44.768;2023-09-12T02:25:55;95587.25;;;16.91;79.53
77889;BME280;67082;41.704;44.768;2023-09-12T02:28:24;95584.50;;;16.97;79.07
77889;BME280;67082;41.704;44.768;2023-09-12T02:30:52;95585.81;;;17.01;78.83
77889;BME280;67082;41.704;44.768;2023-09-12T02:33:21;95582.38;;;16.86;79.18
77889;BME280;67082;41.704;44.768;2023-09-12T02:35:49;95582.59;;;16.83;79.53
77889;BME280;67082;41.704;44.768;2023-09-12T02:38:18;95576.47;;;16.84;79.52
77889;BME280;67082;41.704;44.768;2023-09-12T02:40:46;95583.34;;;16.83;79.29
77889;BME280;67082;41.704;44.768;2023-09-12T02:43:14;95582.91;;;16.90;79.28
77889;BME280;67082;41.704;44.768;2023-09-12T02:45:43;95583.69;;;16.91;79.08
77889;BME280;67082;41.704;44.768;2023-09-12T02:48:11;95594.91;;;16.96;79.30
77889;BME280;67082;41.704;44.768;2023-09-12T02:50:40;95598.38;;;16.86;79.09
77889;BME280;67082;41.704;44.768;2023-09-12T02:53:08;95596.41;;;16.92;78.30
77889;BME280;67082;41.704;44.768;2023-09-12T02:55:39;95599.28;;;16.97;78.27
77889;BME280;67082;41.704;44.768;2023-09-12T02:58:09;95604.91;;;17.03;78.35
77889;BME280;67082;41.704;44.768;2023-09-12T03:00:39;95608.47;;;17.03;78.73
77889;BME280;67082;41.704;44.768;2023-09-12T03:03:09;95618.69;;;17.06;79.12
77889;BME280;67082;41.704;44.768;2023-09-12T03:05:38;95606.44;;;17.04;79.07
77889;BME280;67082;41.704;44.768;2023-09-12T03:08:07;95619.78;;;17.14;79.22
77889;BME280;67082;41.704;44.768;2023-09-12T03:10:36;95616.47;;;17.16;79.31
77889;BME280;67082;41.704;44.768;2023-09-12T03:13:05;95615.38;;;17.08;78.62
77889;BME280;67082;41.704;44.768;2023-09-12T03:15:36;95611.91;;;16.87;79.75
77889;BME280;67082;41.704;44.768;2023-09-12T03:18:09;95599.44;;;16.88;80.47
77889;BME280;67082;41.704;44.768;2023-09-12T03:20:38;95598.63;;;16.82;80.78
77889;BME280;67082;41.704;44.768;2023-09-12T03:23:07;95592.56;;;16.89;80.69
77889;BME280;67082;41.704;44.768;2023-09-12T03:25:36;95597.63;;;16.85;81.23
77889;BME280;67082;41.704;44.768;2023-09-12T03:28:06;95602.84;;;16.72;81.76
77889;BME280;67082;41.704;44.768;2023-09-12T03:30:36;95591.97;;;16.80;81.90
77889;BME280;67082;41.704;44.768;2023-09-12T03:33:06;95591.94;;;16.74;82.33
77889;BME280;67082;41.704;44.768;2023-09-12T03:35:35;95589.97;;;16.80;82.31
77889;BME280;67082;41.704;44.768;2023-09-12T03:38:04;95594.09;;;16.90;82.04
77889;BME280;67082;41.704;44.768;2023-09-12T03:40:32;95597.41;;;16.89;81.77
77889;BME280;67082;41.704;44.768;2023-09-12T03:43:01;95599.16;;;16.86;81.87
77889;BME280;67082;41.704;44.768;2023-09-12T03:45:29;95609.34;;;16.89;81.60
77889;BME280;67082;41.704;44.768;2023-09-12T03:47:58;95612.16;;;16.89;81.21
77889;BME280;67082;41.704;44.768;2023-09-12T03:50:26;95615.28;;;16.71;82.14
77889;BME280;67082;41.704;44.768;2023-09-12T03:52:54;95616.19;;;16.57;82.68
77889;BME280;67082;41.704;44.768;2023-09-12T03:55:22;95612.69;;;16.42;82.80
77889;BME280;67082;41.704;44.768;2023-09-12T03:57:51;95618.84;;;16.46;82.53
77889;BME280;67082;41.704;44.768;2023-09-12T04:00:19;95617.16;;;16.54;82.38
77889;BME280;67082;41.704;44.768;2023-09-12T04:02:50;95618.75;;;16.61;82.33
77889;BME280;67082;41.704;44.768;2023-09-12T04:05:18;95625.16;;;16.67;82.03
77889;BME280;67082;41.704;44.768;2023-09-12T04:07:47;95632.06;;;16.71;81.57
77889;BME280;67082;41.704;44.768;2023-09-12T04:10:15;95624.50;;;16.77;81.18
77889;BME280;67082;41.704;44.768;2023-09-12T04:12:43;95624.06;;;16.59;81.86
77889;BME280;67082;41.704;44.768;2023-09-12T04:15:13;95617.22;;;16.60;82.07
77889;BME280;67082;41.704;44.768;2023-09-12T04:17:41;95612.00;;;16.73;81.72
77889;BME280;67082;41.704;44.768;2023-09-12T04:20:10;95620.75;;;16.80;81.30
77889;BME280;67082;41.704;44.768;2023-09-12T04:22:42;95622.31;;;16.87;80.91
77889;BME280;67082;41.704;44.768;2023-09-12T04:25:11;95633.25;;;16.85;81.22
77889;BME280;67082;41.704;44.768;2023-09-12T04:27:41;95635.06;;;16.88;81.26
77889;BME280;67082;41.704;44.768;2023-09-12T04:30:10;95639.63;;;16.85;81.60
77889;BME280;67082;41.704;44.768;2023-09-12T04:32:39;95634.06;;;16.91;81.00
77889;BME280;67082;41.704;44.768;2023-09-12T04:35:07;95632.75;;;16.86;80.35
77889;BME280;67082;41.704;44.768;2023-09-12T04:37:36;95621.06;;;16.88;80.22
77889;BME280;67082;41.704;44.768;2023-09-12T04:40:06;95625.19;;;16.92;80.14
77889;BME280;67082;41.704;44.768;2023-09-12T04:42:34;95620.34;;;16.93;80.63
77889;BME280;67082;41.704;44.768;2023-09-12T04:45:03;95637.56;;;16.86;80.29
77889;BME280;67082;41.704;44.768;2023-09-12T04:47:32;95647.06;;;16.68;80.60
77889;BME280;67082;41.704;44.768;2023-09-12T04:50:00;95653.06;;;16.61;80.90
77889;BME280;67082;41.704;44.768;2023-09-12T04:52:30;95650.50;;;16.58;81.79
77889;BME280;67082;41.704;44.768;2023-09-12T04:55:01;95645.19;;;16.60;81.35
77889;BME280;67082;41.704;44.768;2023-09-12T04:57:31;95650.50;;;16.58;82.15
77889;BME280;67082;41.704;44.768;2023-09-12T04:59:59;95649.53;;;16.61;81.93
77889;BME280;67082;41.704;44.768;2023-09-12T05:02:29;95651.41;;;16.69;81.68
77889;BME280;67082;41.704;44.768;2023-09-12T05:04:57;95654.25;;;16.75;82.01
77889;BME280;67082;41.704;44.768;2023-09-12T05:07:26;95656.81;;;16.78;82.14
77889;BME280;67082;41.704;44.768;2023-09-12T05:09:54;95660.75;;;16.86;81.76
77889;BME280;67082;41.704;44.768;2023-09-12T05:12:22;95663.81;;;16.88;81.40
77889;BME280;67082;41.704;44.768;2023-09-12T05:14:51;95662.28;;;16.87;81.43
77889;BME280;67082;41.704;44.768;2023-09-12T05:17:19;95660.06;;;16.97;81.38
77889;BME280;67082;41.704;44.768;2023-09-12T05:19:47;95658.75;;;16.92;81.31
77889;BME280;67082;41.704;44.768;2023-09-12T05:22:16;95658.28;;;16.94;80.90
77889;BME280;67082;41.704;44.768;2023-09-12T05:24:44;95657.75;;;16.95;81.44
77889;BME280;67082;41.704;44.768;2023-09-12T05:27:14;95650.91;;;16.96;81.87
77889;BME280;67082;41.704;44.768;2023-09-12T05:29:42;95660.44;;;16.84;81.95
77889;BME280;67082;41.704;44.768;2023-09-12T05:32:10;95666.03;;;16.84;82.20
77889;BME280;67082;41.704;44.768;2023-09-12T05:34:39;95676.59;;;16.69;82.57
77889;BME280;67082;41.704;44.768;2023-09-12T05:37:07;95680.91;;;16.70;81.71
77889;BME280;67082;41.704;44.768;2023-09-12T05:39:35;95674.31;;;16.73;83.14
77889;BME280;67082;41.704;44.768;2023-09-12T05:42:04;95677.69;;;16.77;82.68
77889;BME280;67082;41.704;44.768;2023-09-12T05:44:33;95683.84;;;16.61;82.74
77889;BME280;67082;41.704;44.768;2023-09-12T05:47:03;95690.34;;;16.53;82.64
77889;BME280;67082;41.704;44.768;2023-09-12T05:49:34;95686.38;;;16.59;82.68
77889;BME280;67082;41.704;44.768;2023-09-12T05:52:02;95692.41;;;16.52;81.99
77889;BME280;67082;41.704;44.768;2023-09-12T05:54:30;95697.84;;;16.41;82.69
77889;BME280;67082;41.704;44.768;2023-09-12T05:56:59;95695.91;;;16.47;82.87
77889;BME280;67082;41.704;44.768;2023-09-12T05:59:27;95699.19;;;16.46;83.23
77889;BME280;67082;41.704;44.768;2023-09-12T06:01:56;95710.44;;;16.51;82.91
77889;BME280;67082;41.704;44.768;2023-09-12T06:04:24;95704.69;;;16.60;83.05
77889;BME280;67082;41.704;44.768;2023-09-12T06:06:53;95711.91;;;16.47;84.40
77889;BME280;67082;41.704;44.768;2023-09-12T06:09:21;95713.56;;;16.59;84.37
77889;BME280;67082;41.704;44.768;2023-09-12T06:11:50;95708.09;;;16.70;83.88
77889;BME280;67082;41.704;44.768;2023-09-12T06:14:19;95714.84;;;16.78;83.57
77889;BME280;67082;41.704;44.768;2023-09-12T06:16:47;95703.00;;;16.88;82.84
77889;BME280;67082;41.704;44.768;2023-09-12T06:19:15;95699.22;;;16.91;83.09
77889;BME280;67082;41.704;44.768;2023-09-12T06:21:44;95679.06;;;16.87;83.08
77889;BME280;67082;41.704;44.768;2023-09-12T06:24:15;95683.78;;;17.01;82.96
77889;BME280;67082;41.704;44.768;2023-09-12T06:26:44;95669.03;;;17.01;82.39
77889;BME280;67082;41.704;44.768;2023-09-12T06:29:14;95668.72;;;16.99;83.07
77889;BME280;67082;41.704;44.768;2023-09-12T06:31:46;95655.53;;;16.99;82.96
77889;BME280;67082;41.704;44.768;2023-09-12T06:34:17;95651.84;;;16.88;83.41
77889;BME280;67082;41.704;44.768;2023-09-12T06:36:45;95668.69;;;16.93;82.82
77889;BME280;67082;41.704;44.768;2023-09-12T06:39:14;95669.75;;;16.96;83.24
77889;BME280;67082;41.704;44.768;2023-09-12T06:41:42;95677.97;;;17.05;82.71
77889;BME280;67082;41.704;44.768;2023-09-12T06:44:10;95677.97;;;17.05;83.18
77889;BME280;67082;41.704;44.768;2023-09-12T06:46:38;95685.34;;;17.02;82.82
77889;BME280;67082;41.704;44.768;2023-09-12T06:49:06;95681.50;;;17.00;82.69
77889;BME280;67082;41.704;44.768;2023-09-12T06:51:35;95668.53;;;17.02;82.55
77889;BME280;67082;41.704;44.768;2023-09-12T06:54:05;95665.28;;;17.09;81.56
77889;BME280;67082;41.704;44.768;2023-09-12T06:56:34;95681.69;;;16.96;82.14
77889;BME280;67082;41.704;44.768;2023-09-12T06:59:05;95688.19;;;17.08;82.55
77889;BME280;67082;41.704;44.768;2023-09-12T07:01:34;95683.38;;;17.08;82.37
77889;BME280;67082;41.704;44.768;2023-09-12T07:04:03;95682.34;;;17.11;81.68
77889;BME280;67082;41.704;44.768;2023-09-12T07:06:31;95698.41;;;17.11;81.94
77889;BME280;67082;41.704;44.768;2023-09-12T07:09:00;95709.91;;;17.18;81.21
77889;BME280;67082;41.704;44.768;2023-09-12T07:11:29;95709.69;;;17.22;81.39
77889;BME280;67082;41.704;44.768;2023-09-12T07:13:57;95719.81;;;17.14;81.82
77889;BME280;67082;41.704;44.768;2023-09-12T07:16:26;95715.41;;;17.07;81.87
77889;BME280;67082;41.704;44.768;2023-09-12T07:18:54;95710.84;;;17.10;82.13
77889;BME280;67082;41.704;44.768;2023-09-12T07:21:23;95717.94;;;17.05;81.75
77889;BME280;67082;41.704;44.768;2023-09-12T07:23:51;95717.88;;;17.00;81.97
77889;BME280;67082;41.704;44.768;2023-09-12T07:26:19;95703.66;;;17.03;81.56
77889;BME280;67082;41.704;44.768;2023-09-12T07:28:47;95713.44;;;16.88;82.13
77889;BME280;67082;41.704;44.768;2023-09-12T07:31:16;95707.63;;;16.91;82.31
77889;BME280;67082;41.704;44.768;2023-09-12T07:33:45;95703.81;;;16.94;81.63
77889;BME280;67082;41.704;44.768;2023-09-12T07:36:14;95697.59;;;16.85;82.01
77889;BME280;67082;41.704;44.768;2023-09-12T07:38:42;95699.50;;;16.73;82.70
77889;BME280;67082;41.704;44.768;2023-09-12T07:41:13;95703.06;;;16.74;82.52
77889;BME280;67082;41.704;44.768;2023-09-12T07:43:41;95704.13;;;16.76;82.59
77889;BME280;67082;41.704;44.768;2023-09-12T07:46:33;95701.88;;;16.80;82.54
77889;BME280;67082;41.704;44.768;2023-09-12T07:49:01;95708.03;;;16.84;81.95
77889;BME280;67082;41.704;44.768;2023-09-12T07:51:29;95701.31;;;16.76;81.92
77889;BME280;67082;41.704;44.768;2023-09-12T07:53:57;95704.25;;;16.67;82.50
77889;BME280;67082;41.704;44.768;2023-09-12T07:56:26;95700.84;;;16.78;82.38
77889;BME280;67082;41.704;44.768;2023-09-12T07:58:54;95702.16;;;16.82;82.60
77889;BME280;67082;41.704;44.768;2023-09-12T08:01:24;95701.69;;;16.84;82.11
77889;BME280;67082;41.704;44.768;2023-09-12T08:03:52;95708.31;;;16.86;82.53
77889;BME280;67082;41.704;44.768;2023-09-12T08:06:21;95706.78;;;16.85;82.71
77889;BME280;67082;41.704;44.768;2023-09-12T08:08:51;95698.91;;;16.89;82.46
77889;BME280;67082;41.704;44.768;2023-09-12T08:11:20;95712.38;;;16.85;82.76
77889;BME280;67082;41.704;44.768;2023-09-12T08:13:49;95721.31;;;16.89;82.58
77889;BME280;67082;41.704;44.768;2023-09-12T08:16:19;95716.41;;;16.84;83.22
77889;BME280;67082;41.704;44.768;2023-09-12T08:18:47;95711.88;;;16.87;83.32
77889;BME280;67082;41.704;44.768;2023-09-12T08:21:16;95713.09;;;16.80;82.57
77889;BME280;67082;41.704;44.768;2023-09-12T08:23:44;95703.69;;;16.83;83.52
77889;BME280;67082;41.704;44.768;2023-09-12T08:26:13;95702.09;;;16.77;83.66
77889;BME280;67082;41.704;44.768;2023-09-12T08:28:41;95692.88;;;16.71;83.91
77889;BME280;67082;41.704;44.768;2023-09-12T08:31:10;95685.59;;;16.59;84.89
77889;BME280;67082;41.704;44.768;2023-09-12T08:33:38;95687.06;;;16.54;85.42
77889;BME280;67082;41.704;44.768;2023-09-12T08:36:07;95689.25;;;16.65;84.52
77889;BME280;67082;41.704;44.768;2023-09-12T08:38:35;95699.50;;;16.73;83.59
77889;BME280;67082;41.704;44.768;2023-09-12T08:41:05;95703.78;;;16.69;83.40
77889;BME280;67082;41.704;44.768;2023-09-12T08:43:33;95711.41;;;16.68;83.16
77889;BME280;67082;41.704;44.768;2023-09-12T08:46:02;95713.00;;;16.75;83.19
77889;BME280;67082;41.704;44.768;2023-09-12T08:48:31;95719.88;;;16.74;83.55
77889;BME280;67082;41.704;44.768;2023-09-12T08:51:00;95714.63;;;16.81;83.10
77889;BME280;67082;41.704;44.768;2023-09-12T08:53:31;95703.41;;;16.81;82.12
77889;BME280;67082;41.704;44.768;2023-09-12T08:55:59;95695.91;;;16.93;82.26
77889;BME280;67082;41.704;44.768;2023-09-12T08:58:32;95691.75;;;17.08;81.29
77889;BME280;67082;41.704;44.768;2023-09-12T09:01:03;95689.50;;;17.12;81.40
77889;BME280;67082;41.704;44.768;2023-09-12T09:03:32;95705.44;;;17.26;80.97
77889;BME280;67082;41.704;44.768;2023-09-12T09:06:02;95697.84;;;17.32;80.46
77889;BME280;67082;41.704;44.768;2023-09-12T09:08:31;95703.72;;;17.34;80.02
77889;BME280;67082;41.704;44.768;2023-09-12T09:11:00;95704.31;;;17.44;79.42
77889;BME280;67082;41.704;44.768;2023-09-12T09:13:33;95704.66;;;17.51;79.80
77889;BME280;67082;41.704;44.768;2023-09-12T09:16:16;95697.31;;;17.59;79.05
77889;BME280;67082;41.704;44.768;2023-09-12T09:19:04;95709.34;;;17.65;77.91
77889;BME280;67082;41.704;44.768;2023-09-12T09:21:39;95696.09;;;17.60;77.92
77889;BME280;67082;41.704;44.768;2023-09-12T09:24:13;95695.13;;;17.69;77.96
77889;BME280;67082;41.704;44.768;2023-09-12T09:26:49;95688.34;;;17.81;77.62
77889;BME280;67082;41.704;44.768;2023-09-12T09:29:19;95691.63;;;17.79;76.76
77889;BME280;67082;41.704;44.768;2023-09-12T09:31:49;95688.63;;;17.88;77.06
77889;BME280;67082;41.704;44.768;2023-09-12T09:34:20;95692.63;;;17.76;76.98
77889;BME280;67082;41.704;44.768;2023-09-12T09:36:52;95701.03;;;17.76;77.32
77889;BME280;67082;41.704;44.768;2023-09-12T09:39:23;95712.69;;;17.69;77.66
77889;BME280;67082;41.704;44.768;2023-09-12T09:41:56;95712.97;;;17.71;78.04
77889;BME280;67082;41.704;44.768;2023-09-12T09:44:26;95714.06;;;17.79;77.89
77889;BME280;67082;41.704;44.768;2023-09-12T09:46:59;95707.41;;;17.77;77.31
77889;BME280;67082;41.704;44.768;2023-09-12T09:49:34;95710.75;;;17.81;77.43
77889;BME280;67082;41.704;44.768;2023-09-12T09:52:06;95707.91;;;17.75;77.44
77889;BME280;67082;41.704;44.768;2023-09-12T09:54:34;95706.13;;;17.78;77.16
77889;BME280;67082;41.704;44.768;2023-09-12T09:57:04;95701.91;;;17.93;77.00
77889;BME280;67082;41.704;44.768;2023-09-12T09:59:31;95696.13;;;18.02;76.68
77889;BME280;67082;41.704;44.768;2023-09-12T10:02:00;95695.66;;;18.09;76.69
77889;BME280;67082;41.704;44.768;2023-09-12T10:04:32;95693.41;;;18.19;76.31
77889;BME280;67082;41.704;44.768;2023-09-12T10:07:13;95690.41;;;18.28;75.48
77889;BME280;67082;41.704;44.768;2023-09-12T10:09:44;95692.72;;;18.29;74.94
77889;BME280;67082;41.704;44.768;2023-09-12T10:12:15;95684.16;;;18.44;74.46
77889;BME280;67082;41.704;44.768;2023-09-12T10:14:44;95685.44;;;18.54;74.09
77889;BME280;67082;41.704;44.768;2023-09-12T10:17:16;95688.50;;;18.50;73.99
77889;BME280;67082;41.704;44.768;2023-09-12T10:19:54;95692.44;;;18.69;73.72
77889;BME280;67082;41.704;44.768;2023-09-12T10:22:43;95698.81;;;18.75;73.31
77889;BME280;67082;41.704;44.768;2023-09-12T10:25:16;95696.81;;;18.81;73.03
77889;BME280;67082;41.704;44.768;2023-09-12T10:27:46;95697.09;;;18.94;72.54
77889;BME280;67082;41.704;44.768;2023-09-12T10:30:14;95691.72;;;18.96;72.92
77889;BME280;67082;41.704;44.768;2023-09-12T10:32:45;95692.72;;;18.82;72.47
77889;BME280;67082;41.704;44.768;2023-09-12T10:35:14;95697.34;;;18.96;72.82
77889;BME280;67082;41.704;44.768;2023-09-12T10:37:44;95700.34;;;18.76;72.87
77889;BME280;67082;41.704;44.768;2023-09-12T10:40:14;95694.78;;;18.87;72.44
77889;BME280;67082;41.704;44.768;2023-09-12T10:42:45;95699.16;;;18.99;71.69
77889;BME280;67082;41.704;44.768;2023-09-12T10:45:15;95704.00;;;18.99;71.96
77889;BME280;67082;41.704;44.768;2023-09-12T10:47:47;95691.75;;;19.07;71.23
77889;BME280;67082;41.704;44.768;2023-09-12T10:50:19;95702.06;;;19.21;71.27
77889;BME280;67082;41.704;44.768;2023-09-12T10:52:50;95695.31;;;19.02;71.03
77889;BME280;67082;41.704;44.768;2023-09-12T10:55:19;95697.38;;;19.07;71.04
77889;BME280;67082;41.704;44.768;2023-09-12T10:58:06;95695.31;;;18.97;72.03
77889;BME280;67082;41.704;44.768;2023-09-12T11:00:37;95691.25;;;19.09;71.96
77889;BME280;67082;41.704;44.768;2023-09-12T11:05:57;95678.25;;;19.17;71.12
77889;BME280;67082;41.704;44.768;2023-09-12T11:08:28;95680.31;;;19.22;70.94
77889;BME280;67082;41.704;44.768;2023-09-12T11:11:21;95683.41;;;19.29;70.71
77889;BME280;67082;41.704;44.768;2023-09-12T11:14:06;95674.72;;;19.33;70.76
77889;BME280;67082;41.704;44.768;2023-09-12T11:19:51;95666.56;;;19.29;69.98
77889;BME280;67082;41.704;44.768;2023-09-12T11:22:26;95662.97;;;19.40;69.90
77889;BME280;67082;41.704;44.768;2023-09-12T11:24:55;95665.28;;;19.41;69.14
77889;BME280;67082;41.704;44.768;2023-09-12T11:27:32;95671.94;;;19.38;68.21
77889;BME280;67082;41.704;44.768;2023-09-12T11:30:04;95667.84;;;19.39;67.50
77889;BME280;67082;41.704;44.768;2023-09-12T11:32:37;95663.50;;;19.44;67.15
77889;BME280;67082;41.704;44.768;2023-09-12T11:35:08;95664.00;;;19.53;66.73
77889;BME280;67082;41.704;44.768;2023-09-12T11:37:37;95659.41;;;19.56;66.04
77889;BME280;67082;41.704;44.768;2023-09-12T11:40:45;95660.66;;;19.71;65.74
77889;BME280;67082;41.704;44.768;2023-09-12T11:43:27;95661.19;;;19.75;65.36
77889;BME280;67082;41.704;44.768;2023-09-12T11:45:57;95664.25;;;19.77;64.40
77889;BME280;67082;41.704;44.768;2023-09-12T11:48:26;95662.47;;;19.85;63.91
77889;BME280;67082;41.704;44.768;2023-09-12T11:50:57;95668.34;;;19.87;64.26
77889;BME280;67082;41.704;44.768;2023-09-12T11:53:27;95673.44;;;19.83;64.40
77889;BME280;67082;41.704;44.768;2023-09-12T11:55:59;95660.13;;;19.89;63.16
77889;BME280;67082;41.704;44.768;2023-09-12T11:58:28;95667.81;;;19.94;63.27
77889;BME280;67082;41.704;44.768;2023-09-12T12:00:58;95669.84;;;20.05;63.54
77889;BME280;67082;41.704;44.768;2023-09-12T12:03:27;95663.72;;;20.06;62.18
77889;BME280;67082;41.704;44.768;2023-09-12T12:05:58;95657.59;;;19.91;62.21
77889;BME280;67082;41.704;44.768;2023-09-12T12:08:26;95653.47;;;19.98;62.77
77889;BME280;67082;41.704;44.768;2023-09-12T12:11:03;95660.63;;;20.04;62.82
77889;BME280;67082;41.704;44.768;2023-09-12T12:13:33;95654.22;;;20.04;62.70
77889;BME280;67082;41.704;44.768;2023-09-12T12:16:14;95659.63;;;20.02;62.89
77889;BME280;67082;41.704;44.768;2023-09-12T12:18:45;95663.44;;;20.04;62.71
77889;BME280;67082;41.704;44.768;2023-09-12T12:21:14;95661.16;;;19.97;62.45
77889;BME280;67082;41.704;44.768;2023-09-12T12:23:42;95673.44;;;19.94;62.43
77889;BME280;67082;41.704;44.768;2023-09-12T12:26:12;95666.81;;;19.86;62.58
77889;BME280;67082;41.704;44.768;2023-09-12T12:28:40;95663.97;;;19.81;63.57
77889;BME280;67082;41.704;44.768;2023-09-12T12:31:09;95661.41;;;19.88;63.66
77889;BME280;67082;41.704;44.768;2023-09-12T12:33:38;95666.03;;;19.91;64.02
77889;BME280;67082;41.704;44.768;2023-09-12T12:36:26;95667.31;;;19.90;64.00
77889;BME280;67082;41.704;44.768;2023-09-12T12:38:55;95665.75;;;19.89;63.79
77889;BME280;67082;41.704;44.768;2023-09-12T12:41:26;95671.16;;;19.93;64.16
77889;BME280;67082;41.704;44.768;2023-09-12T12:44:02;95663.97;;;19.81;64.53
77889;BME280;67082;41.704;44.768;2023-09-12T12:46:32;95665.53;;;19.65;64.36
77889;BME280;67082;41.704;44.768;2023-09-12T12:49:02;95667.59;;;19.65;65.04
77889;BME280;67082;41.704;44.768;2023-09-12T12:51:33;95665.81;;;19.56;65.38
77889;BME280;67082;41.704;44.768;2023-09-12T12:54:04;95664.03;;;19.59;64.84
77889;BME280;67082;41.704;44.768;2023-09-12T12:56:37;95660.69;;;19.66;65.28
77889;BME280;67082;41.704;44.768;2023-09-12T12:59:06;95654.03;;;19.69;64.18
77889;BME280;67082;41.704;44.768;2023-09-12T13:01:38;95659.16;;;19.76;63.96
77889;BME280;67082;41.704;44.768;2023-09-12T13:04:09;95654.28;;;19.76;62.84
77889;BME280;67082;41.704;44.768;2023-09-12T13:06:38;95659.66;;;19.74;62.65
77889;BME280;67082;41.704;44.768;2023-09-12T13:09:09;95671.66;;;19.75;62.82
77889;BME280;67082;41.704;44.768;2023-09-12T13:11:39;95669.63;;;19.70;63.07
77889;BME280;67082;41.704;44.768;2023-09-12T13:14:07;95677.03;;;19.78;62.99
77889;BME280;67082;41.704;44.768;2023-09-12T13:16:40;95681.38;;;19.79;62.90
77889;BME280;67082;41.704;44.768;2023-09-12T13:19:10;95679.34;;;19.85;63.26
77889;BME280;67082;41.704;44.768;2023-09-12T13:21:41;95683.69;;;19.86;63.19
77889;BME280;67082;41.704;44.768;2023-09-12T13:24:12;95678.56;;;19.85;63.59
77889;BME280;67082;41.704;44.768;2023-09-12T13:26:41;95687.75;;;19.96;63.01
77889;BME280;67082;41.704;44.768;2023-09-12T13:29:10;95691.59;;;19.88;63.34
77889;BME280;67082;41.704;44.768;2023-09-12T13:31:38;95692.13;;;19.86;62.41
77889;BME280;67082;41.704;44.768;2023-09-12T13:34:06;95700.03;;;19.82;63.05
77889;BME280;67082;41.704;44.768;2023-09-12T13:36:35;95700.56;;;19.86;62.37
77889;BME280;67082;41.704;44.768;2023-09-12T13:39:03;95702.09;;;19.76;62.01
77889;BME280;67082;41.704;44.768;2023-09-12T13:41:32;95696.47;;;19.76;62.53
77889;BME280;67082;41.704;44.768;2023-09-12T13:44:00;95699.78;;;19.80;62.50